createdAt,value
2022-11-08T00:00:02.980Z,10.58
2022-11-08T00:02:53.340Z,10.67
2022-11-08T00:05:33.301Z,10.69
2022-11-08T00:08:23.700Z,10.67
2022-11-08T00:11:03.986Z,10.61
2022-11-08T00:13:44.365Z,10.59
2022-11-08T00:16:12.123Z,10.58
2022-11-08T00:18:40.002Z,10.56
2022-11-08T00:21:07.977Z,10.55
2022-11-08T00:23:35.897Z,10.53
2022-11-08T00:26:04.208Z,10.48
2022-11-08T00:28:32.212Z,10.44
2022-11-08T00:31:06.523Z,10.36
2022-11-08T00:33:35.209Z,10.26
2022-11-08T00:36:04.249Z,10.18
2022-11-08T00:38:32.285Z,10.13
2022-11-08T00:41:00.325Z,10.11
2022-11-08T00:43:28.233Z,10.12
2022-11-08T00:45:56.197Z,10.13
2022-11-08T00:48:24.059Z,10.16
2022-11-08T00:50:53.022Z,10.20
2022-11-08T00:53:23.032Z,10.21
2022-11-08T00:55:58.942Z,10.24
2022-11-08T00:58:28.194Z,10.26
2022-11-08T01:00:57.122Z,10.27
2022-11-08T01:03:26.156Z,10.28
2022-11-08T01:05:54.868Z,10.33
2022-11-08T01:08:23.661Z,10.40
2022-11-08T01:10:52.540Z,10.47
2022-11-08T01:13:20.926Z,10.54
2022-11-08T01:15:49.360Z,10.60
2022-11-08T01:18:18.343Z,10.63
2022-11-08T01:20:48.510Z,10.68
2022-11-08T01:23:18.882Z,10.66
2022-11-08T01:25:48.855Z,10.55
2022-11-08T01:28:17.305Z,10.47
2022-11-08T01:30:46.395Z,10.32
2022-11-08T01:33:16.151Z,10.24
2022-11-08T01:35:45.776Z,10.22
2022-11-08T01:38:17.370Z,10.19
2022-11-08T01:40:47.202Z,10.16
2022-11-08T01:43:36.572Z,10.14
2022-11-08T01:46:41.434Z,10.12
2022-11-08T01:49:40.428Z,10.10
2022-11-08T01:52:37.527Z,10.09
2022-11-08T01:55:26.148Z,10.05
2022-11-08T01:58:02.393Z,10.06
2022-11-08T02:00:30.635Z,10.07
2022-11-08T02:03:01.555Z,10.09
2022-11-08T02:05:30.591Z,10.14
2022-11-08T02:08:07.058Z,10.18
2022-11-08T02:10:39.467Z,10.22
2022-11-08T02:13:14.838Z,10.21
2022-11-08T02:15:43.634Z,10.19
2022-11-08T02:18:13.356Z,10.11
2022-11-08T02:20:51.289Z,10.10
2022-11-08T02:23:28.773Z,10.11
2022-11-08T02:25:57.201Z,10.04
2022-11-08T02:28:25.646Z,10.00
2022-11-08T02:30:55.157Z,10.04
2022-11-08T02:33:23.974Z,10.10
2022-11-08T02:35:56.658Z,10.14
2022-11-08T02:38:26.253Z,10.17
2022-11-08T02:40:56.028Z,10.13
2022-11-08T02:43:24.950Z,10.14
2022-11-08T02:45:53.299Z,10.12
2022-11-08T02:48:21.732Z,10.11
2022-11-08T02:50:49.744Z,10.09
2022-11-08T02:53:18.574Z,10.08
2022-11-08T02:55:46.951Z,10.03
2022-11-08T02:58:15.625Z,9.99
2022-11-08T03:00:43.941Z,9.90
2022-11-08T03:03:12.142Z,9.87
2022-11-08T03:05:40.416Z,9.87
2022-11-08T03:08:08.378Z,9.86
2022-11-08T03:10:37.178Z,9.85
2022-11-08T03:13:06.881Z,9.79
2022-11-08T03:15:35.781Z,9.79
2022-11-08T03:18:04.038Z,9.79
2022-11-08T03:20:33.367Z,9.84
2022-11-08T03:23:04.060Z,9.91
2022-11-08T03:25:32.785Z,10.00
2022-11-08T03:28:04.288Z,10.08
2022-11-08T03:30:33.364Z,10.12
2022-11-08T03:33:01.729Z,10.15
2022-11-08T03:35:30.334Z,10.14
2022-11-08T03:37:58.634Z,10.16
2022-11-08T03:40:27.252Z,10.21
2022-11-08T03:42:58.027Z,10.26
2022-11-08T03:45:25.952Z,10.29
2022-11-08T03:47:53.712Z,10.32
2022-11-08T03:50:21.733Z,10.35
2022-11-08T03:52:52.155Z,10.37
2022-11-08T03:55:22.303Z,10.35
2022-11-08T03:57:50.866Z,10.35
2022-11-08T04:00:22.387Z,10.33
2022-11-08T04:02:50.514Z,10.28
2022-11-08T04:05:19.228Z,10.22
2022-11-08T04:07:47.475Z,10.18
2022-11-08T04:10:15.694Z,10.16
2022-11-08T04:12:58.865Z,10.16
2022-11-08T04:15:29.704Z,10.15
2022-11-08T04:18:09.089Z,10.11
2022-11-08T04:20:59.216Z,10.07
2022-11-08T04:23:35.129Z,10.04
2022-11-08T04:26:06.945Z,10.03
2022-11-08T04:28:37.449Z,10.03
2022-11-08T04:31:08.772Z,9.99
2022-11-08T04:33:36.997Z,9.97
2022-11-08T04:36:07.895Z,9.94
2022-11-08T04:38:36.097Z,9.87
2022-11-08T04:41:10.144Z,9.82
2022-11-08T04:43:38.906Z,9.83
2022-11-08T04:46:09.780Z,9.81
2022-11-08T04:48:38.223Z,9.76
2022-11-08T04:51:10.147Z,9.72
2022-11-08T04:53:38.097Z,9.71
2022-11-08T04:56:09.660Z,9.78
2022-11-08T04:58:40.081Z,9.83
2022-11-08T05:01:10.145Z,9.88
2022-11-08T05:03:38.524Z,9.97
2022-11-08T05:06:10.801Z,9.99
2022-11-08T05:08:39.192Z,9.99
2022-11-08T05:11:09.413Z,9.97
2022-11-08T05:13:37.974Z,10.03
2022-11-08T05:16:12.386Z,10.08
2022-11-08T05:18:41.992Z,10.11
2022-11-08T05:21:23.120Z,10.07
2022-11-08T05:23:51.650Z,10.04
2022-11-08T05:26:20.825Z,10.03
2022-11-08T05:28:49.270Z,9.99
2022-11-08T05:31:17.962Z,9.93
2022-11-08T05:33:48.090Z,9.88
2022-11-08T05:36:22.113Z,9.86
2022-11-08T05:38:50.170Z,9.82
2022-11-08T05:41:20.866Z,9.79
2022-11-08T05:43:55.339Z,9.75
2022-11-08T05:46:25.991Z,9.79
2022-11-08T05:48:54.300Z,9.79
2022-11-08T05:51:26.786Z,9.82
2022-11-08T05:54:02.548Z,9.87
2022-11-08T05:56:31.350Z,9.91
2022-11-08T05:59:09.984Z,9.96
2022-11-08T06:01:39.240Z,10.02
2022-11-08T06:04:07.282Z,10.08
2022-11-08T06:06:35.725Z,10.13
2022-11-08T06:09:05.127Z,10.19
2022-11-08T06:11:36.468Z,10.27
2022-11-08T06:14:07.196Z,10.34
2022-11-08T06:16:40.936Z,10.41
2022-11-08T06:19:10.549Z,10.48
2022-11-08T06:21:38.680Z,10.55
2022-11-08T06:24:10.135Z,10.62
2022-11-08T06:26:40.193Z,10.71
2022-11-08T06:29:08.128Z,10.76
2022-11-08T06:31:41.885Z,10.79
2022-11-08T06:34:13.861Z,10.81
2022-11-08T06:36:42.076Z,10.80
2022-11-08T06:39:19.552Z,10.80
2022-11-08T06:41:51.132Z,10.80
2022-11-08T06:44:20.509Z,10.80
2022-11-08T06:46:48.593Z,10.83
2022-11-08T06:49:24.049Z,10.84
2022-11-08T06:51:54.945Z,10.83
2022-11-08T06:54:27.808Z,10.84
2022-11-08T06:57:13.206Z,10.84
2022-11-08T06:59:51.526Z,10.83
2022-11-08T07:02:44.411Z,10.85
2022-11-08T07:05:12.733Z,10.87
2022-11-08T07:07:40.681Z,10.89
2022-11-08T07:10:08.939Z,10.93
2022-11-08T07:12:42.093Z,10.98
2022-11-08T07:15:10.537Z,11.02
2022-11-08T07:17:49.914Z,11.07
2022-11-08T07:20:25.531Z,11.12
2022-11-08T07:23:03.029Z,11.19
2022-11-08T07:25:34.028Z,11.23
2022-11-08T07:31:12.340Z,11.36
2022-11-08T07:33:44.727Z,11.38
2022-11-08T07:36:13.118Z,11.42
2022-11-08T07:38:42.771Z,11.39
2022-11-08T07:41:12.721Z,11.40
2022-11-08T07:43:41.379Z,11.41
2022-11-08T07:46:16.781Z,11.40
2022-11-08T07:48:44.896Z,11.41
2022-11-08T07:51:13.097Z,11.42
2022-11-08T07:53:43.342Z,11.37
2022-11-08T07:56:11.385Z,11.29
2022-11-08T07:58:41.675Z,11.28
2022-11-08T08:01:11.262Z,11.32
2022-11-08T08:03:39.306Z,11.33
2022-11-08T08:06:12.788Z,11.31
2022-11-08T08:08:50.217Z,11.22
2022-11-08T08:11:24.828Z,11.22
2022-11-08T08:13:58.201Z,11.30
2022-11-08T08:16:26.250Z,11.38
2022-11-08T08:19:03.094Z,11.47
2022-11-08T08:21:53.184Z,11.55
2022-11-08T08:24:46.426Z,11.58
2022-11-08T08:27:24.117Z,11.57
2022-11-08T08:30:15.661Z,11.61
2022-11-08T08:33:36.218Z,11.60
2022-11-08T08:36:51.996Z,11.77
2022-11-08T08:40:34.306Z,11.89
2022-11-08T08:43:34.999Z,11.96
2022-11-08T08:46:16.943Z,11.99
2022-11-08T08:48:48.471Z,12.05
2022-11-08T08:51:19.988Z,12.11
2022-11-08T08:53:59.374Z,12.17
2022-11-08T08:56:41.025Z,12.24
2022-11-08T09:24:11.401Z,12.29
2022-11-08T09:37:02.861Z,12.78
2022-11-08T09:39:49.447Z,12.92
2022-11-08T09:42:31.345Z,13.04
2022-11-08T09:45:26.964Z,13.12
2022-11-08T09:48:05.900Z,13.14
2022-11-08T09:50:49.531Z,13.13
2022-11-08T09:53:35.664Z,13.07
2022-11-08T09:56:17.879Z,13.05
2022-11-08T09:59:13.590Z,13.02
2022-11-08T10:01:45.617Z,12.91
2022-11-08T10:04:24.344Z,12.78
2022-11-08T10:07:55.612Z,12.62
2022-11-08T10:11:01.245Z,12.51
2022-11-08T10:13:59.566Z,12.46
2022-11-08T10:16:56.846Z,12.53
2022-11-08T10:20:06.970Z,12.65
2022-11-08T10:24:04.435Z,12.79
2022-11-08T10:26:25.785Z,12.94
2022-11-08T10:29:02.223Z,13.07
2022-11-08T10:31:38.885Z,13.19
2022-11-08T10:34:14.583Z,13.24
2022-11-08T10:37:15.579Z,13.34
2022-11-08T10:39:55.915Z,13.50
2022-11-08T10:42:50.449Z,13.63
2022-11-08T10:45:23.297Z,13.77
2022-11-08T10:47:58.704Z,13.94
2022-11-08T10:50:41.137Z,14.09
2022-11-08T10:53:17.028Z,14.25
2022-11-08T10:55:51.582Z,14.36
2022-11-08T10:58:39.016Z,14.44
2022-11-08T11:01:20.284Z,14.46
2022-11-08T11:03:53.008Z,14.41
2022-11-08T11:06:52.670Z,14.35
2022-11-08T11:09:37.397Z,14.28
2022-11-08T11:12:10.524Z,14.17
2022-11-08T11:14:56.314Z,14.05
2022-11-08T11:17:40.113Z,13.98
2022-11-08T11:20:27.009Z,13.90
2022-11-08T11:23:03.029Z,13.81
2022-11-08T11:25:53.655Z,13.83
2022-11-08T11:28:21.541Z,13.85
2022-11-08T11:31:03.410Z,13.87
2022-11-08T11:41:35.984Z,13.75
2022-11-08T11:44:17.486Z,13.82
2022-11-08T12:03:12.995Z,13.96
2022-11-08T14:18:20.765Z,13.29
2022-11-08T14:20:58.103Z,13.21
2022-11-08T14:23:39.392Z,13.11
2022-11-08T14:28:10.875Z,13.07
2022-11-08T14:53:43.824Z,13.17
2022-11-08T14:56:48.349Z,13.08
2022-11-08T15:02:33.538Z,12.86
2022-11-08T15:05:35.873Z,12.77
2022-11-08T15:08:26.582Z,12.70
2022-11-08T15:11:17.434Z,12.63
2022-11-08T15:14:36.396Z,12.50
2022-11-08T15:17:52.535Z,12.42
2022-11-08T15:20:26.618Z,12.33
2022-11-08T15:24:08.966Z,12.23
2022-11-08T15:27:17.862Z,12.11
2022-11-08T15:30:26.819Z,12.02
2022-11-08T15:33:47.749Z,11.92
2022-11-08T15:36:48.266Z,11.84
2022-11-08T15:39:39.438Z,11.79
2022-11-08T15:42:16.101Z,11.76
2022-11-08T15:45:08.483Z,11.73
2022-11-08T15:48:29.553Z,11.64
2022-11-08T15:51:38.173Z,11.54
2022-11-08T15:54:08.132Z,11.48
2022-11-08T15:56:34.797Z,11.41
2022-11-08T15:59:02.178Z,11.34
2022-11-08T16:01:29.084Z,11.27
2022-11-08T16:03:55.755Z,11.20
2022-11-08T16:06:22.538Z,11.17
2022-11-08T16:08:50.774Z,11.14
2022-11-08T16:11:21.602Z,11.13
2022-11-08T16:13:49.181Z,11.13
2022-11-08T16:16:17.274Z,11.14
2022-11-08T16:18:44.282Z,11.14
2022-11-08T16:21:12.577Z,11.14
2022-11-08T16:23:40.492Z,11.12
2022-11-08T16:26:14.426Z,11.10
2022-11-08T16:28:41.025Z,11.08
2022-11-08T16:31:13.412Z,11.09
2022-11-08T16:33:41.718Z,11.10
2022-11-08T16:36:20.321Z,11.11
2022-11-08T16:38:52.811Z,11.09
2022-11-08T16:41:20.383Z,11.06
2022-11-08T16:43:47.127Z,11.02
2022-11-08T16:46:14.693Z,10.94
2022-11-08T16:48:48.615Z,10.85
2022-11-08T16:51:18.477Z,10.74
2022-11-08T16:53:46.980Z,10.62
2022-11-08T16:56:14.133Z,10.53
2022-11-08T16:58:41.345Z,10.42
2022-11-08T17:01:16.727Z,10.30
2022-11-08T17:03:43.290Z,10.17
2022-11-08T17:06:15.111Z,10.06
2022-11-08T17:08:41.629Z,9.93
2022-11-08T17:11:09.738Z,9.81
2022-11-08T17:13:40.254Z,9.71
2022-11-08T17:16:11.451Z,9.61
2022-11-08T17:18:38.251Z,9.52
2022-11-08T17:21:29.936Z,9.45
2022-11-08T17:23:52.375Z,9.39
2022-11-08T17:26:18.745Z,9.34
2022-11-08T17:28:45.156Z,9.31
2022-11-08T17:31:15.361Z,9.29
2022-11-08T17:33:43.063Z,9.28
2022-11-08T17:36:11.856Z,9.22
2022-11-08T17:38:39.825Z,9.12
2022-11-08T17:41:09.600Z,9.04
2022-11-08T17:43:39.269Z,9.00
2022-11-08T17:46:06.608Z,8.98
2022-11-08T17:48:33.243Z,8.98
2022-11-08T17:51:00.298Z,9.01
2022-11-08T17:53:27.257Z,9.07
2022-11-08T17:55:59.708Z,9.13
2022-11-08T17:58:26.510Z,9.13
2022-11-08T18:00:54.844Z,9.07
2022-11-08T18:03:22.084Z,9.02
2022-11-08T18:05:57.788Z,8.97
2022-11-08T18:08:27.292Z,8.95
2022-11-08T18:10:55.210Z,8.94
2022-11-08T18:13:23.095Z,8.86
2022-11-08T18:15:49.511Z,8.74
2022-11-08T18:18:16.812Z,8.61
2022-11-08T18:20:43.615Z,8.50
2022-11-08T18:23:11.598Z,8.42
2022-11-08T18:25:38.638Z,8.34
2022-11-08T18:28:10.746Z,8.25
2022-11-08T18:30:37.035Z,8.15
2022-11-08T18:33:04.076Z,8.08
2022-11-08T18:35:30.592Z,8.00
2022-11-08T18:37:57.011Z,7.94
2022-11-08T18:40:23.474Z,7.90
2022-11-08T18:42:51.322Z,7.87
2022-11-08T18:45:18.202Z,7.85
2022-11-08T18:47:44.669Z,7.83
2022-11-08T18:50:12.360Z,7.83
2022-11-08T18:52:39.747Z,7.83
2022-11-08T18:55:06.593Z,7.81
2022-11-08T18:57:33.027Z,7.80
2022-11-08T19:00:01.221Z,7.78
2022-11-08T19:02:28.248Z,7.81
2022-11-08T19:04:55.795Z,7.83
2022-11-08T19:07:24.599Z,7.86
2022-11-08T19:09:51.326Z,7.85
2022-11-08T19:12:17.975Z,7.88
2022-11-08T19:14:44.397Z,7.88
2022-11-08T19:17:10.726Z,7.85
2022-11-08T19:19:37.227Z,7.83
2022-11-08T19:22:03.525Z,7.81
2022-11-08T19:24:30.140Z,7.79
2022-11-08T19:26:56.868Z,7.73
2022-11-08T19:29:23.202Z,7.67
2022-11-08T19:31:49.569Z,7.64
2022-11-08T19:34:16.068Z,7.60
2022-11-08T19:36:43.360Z,7.54
2022-11-08T19:39:12.649Z,7.49
2022-11-08T19:41:39.789Z,7.44
2022-11-08T19:44:06.731Z,7.38
2022-11-08T19:46:33.671Z,7.32
2022-11-08T19:49:03.040Z,7.25
2022-11-08T19:51:31.519Z,7.19
2022-11-08T19:54:00.427Z,7.12
2022-11-08T19:56:43.724Z,7.07
2022-11-08T19:59:14.482Z,7.01
2022-11-08T20:01:40.993Z,6.98
2022-11-08T20:04:09.497Z,6.94
2022-11-08T20:06:36.329Z,6.91
2022-11-08T20:09:04.872Z,6.88
2022-11-08T20:11:35.113Z,6.87
2022-11-08T20:14:02.595Z,6.89
2022-11-08T20:16:35.120Z,6.90
2022-11-08T20:19:06.011Z,6.91
2022-11-08T20:21:33.412Z,6.93
2022-11-08T20:24:00.158Z,6.94
2022-11-08T20:26:27.006Z,6.98
2022-11-08T20:28:57.113Z,7.00
2022-11-08T20:31:24.265Z,7.01
2022-11-08T20:33:52.269Z,7.01
2022-11-08T20:36:20.800Z,7.01
2022-11-08T20:38:47.479Z,7.01
2022-11-08T20:41:16.964Z,6.99
2022-11-08T20:43:45.711Z,6.96
2022-11-08T20:46:15.506Z,6.92
2022-11-08T20:48:43.536Z,6.87
2022-11-08T20:51:13.367Z,6.81
2022-11-08T20:53:41.015Z,6.76
2022-11-08T20:56:11.969Z,6.69
2022-11-08T20:58:38.505Z,6.64
2022-11-08T21:01:06.762Z,6.59
2022-11-08T21:03:35.549Z,6.55
2022-11-08T21:06:05.895Z,6.48
2022-11-08T21:11:23.786Z,6.35
2022-11-08T21:13:50.597Z,6.27
2022-11-08T21:16:29.736Z,6.20
2022-11-08T21:18:57.768Z,6.14
2022-11-08T21:21:24.316Z,6.10
2022-11-08T21:23:53.111Z,6.07
2022-11-08T21:26:19.954Z,6.07
2022-11-08T21:28:46.899Z,6.08
2022-11-08T21:31:14.146Z,6.12
2022-11-08T21:33:41.909Z,6.14
2022-11-08T21:36:09.010Z,6.15
2022-11-08T21:38:38.464Z,6.17
2022-11-08T21:41:07.250Z,6.19
2022-11-08T21:43:35.626Z,6.21
2022-11-08T21:46:13.082Z,6.23
2022-11-08T21:48:39.677Z,6.24
2022-11-08T21:51:06.155Z,6.27
2022-11-08T21:53:32.806Z,6.32
2022-11-08T21:55:59.372Z,6.38
2022-11-08T21:58:25.805Z,6.46
2022-11-08T22:00:52.597Z,6.52
2022-11-08T22:03:19.381Z,6.51
2022-11-08T22:05:46.129Z,6.52
2022-11-08T22:08:12.731Z,6.53
2022-11-08T22:10:39.098Z,6.55
2022-11-08T22:13:05.516Z,6.54
2022-11-08T22:15:32.699Z,6.53
2022-11-08T22:18:16.301Z,6.52
2022-11-08T22:21:00.529Z,6.45
2022-11-08T22:23:28.032Z,6.38
2022-11-08T22:25:54.616Z,6.34
2022-11-08T22:28:21.493Z,6.30
2022-11-08T22:30:50.215Z,6.27
2022-11-08T22:33:17.987Z,6.27
2022-11-08T22:35:46.487Z,6.26
2022-11-08T22:38:14.124Z,6.23
2022-11-08T22:40:46.025Z,6.21
2022-11-08T22:43:12.827Z,6.18
2022-11-08T22:45:41.519Z,6.18
2022-11-08T22:48:09.742Z,6.20
2022-11-08T22:50:40.563Z,6.22
2022-11-08T22:53:07.594Z,6.28
2022-11-08T22:55:34.870Z,6.33
2022-11-08T22:58:01.568Z,6.38
2022-11-08T23:00:29.163Z,6.39
2022-11-08T23:02:56.445Z,6.43
2022-11-08T23:05:23.492Z,6.40
2022-11-08T23:07:50.086Z,6.45
2022-11-08T23:10:16.839Z,6.47
2022-11-08T23:13:03.386Z,6.48
2022-11-08T23:15:53.055Z,6.53
2022-11-08T23:18:21.220Z,6.58
2022-11-08T23:21:03.553Z,6.64
2022-11-08T23:23:43.508Z,6.69
2022-11-08T23:26:10.010Z,6.72
2022-11-08T23:28:53.841Z,6.71
2022-11-08T23:31:33.949Z,6.67
2022-11-08T23:34:01.936Z,6.62
2022-11-08T23:36:28.423Z,6.57
2022-11-08T23:38:55.726Z,6.54
2022-11-08T23:41:34.513Z,6.47
2022-11-08T23:44:14.639Z,6.41
2022-11-08T23:46:41.092Z,6.35
2022-11-08T23:49:07.582Z,6.30
2022-11-08T23:51:34.116Z,6.28
2022-11-08T23:54:00.637Z,6.28
2022-11-08T23:56:27.922Z,6.25
2022-11-08T23:58:57.848Z,6.25
